Time;durP1;ratioP1;P1;durP2;ratioP2;P2;SDS_P1;SDS_P2;PMS_P1;PMS_P2;Temp;Humidity;BMP_temperature;BMP_pressure;BME280_temperature;BME280_humidity;BME280_pressure;Samples;Min_cycle;Max_cycle;Signal;HPM_P1;HPM_P2
2022/03/03 00:03:02;;;;;;;31.52;18.80;;;;;;;0.94;54.43;100675.69;5584376;26;34152;-88
2022/03/03 00:06:06;;;;;;;33.05;19.48;;;;;;;0.85;54.97;100668.38;5590232;26;34338;-89
2022/03/03 00:09:08;;;;;;;32.88;19.80;;;;;;;0.80;56.00;100678.47;5592125;26;33800;-89
2022/03/03 00:12:11;;;;;;;32.28;20.35;;;;;;;0.92;55.81;100677.59;5618293;26;35185;-88
2022/03/03 00:15:14;;;;;;;32.20;20.35;;;;;;;0.90;55.87;100667.06;5550902;32;34189;-88
2022/03/03 00:18:17;;;;;;;33.03;20.08;;;;;;;0.87;55.85;100674.41;5557896;32;34132;-88
2022/03/03 00:21:20;;;;;;;33.80;20.85;;;;;;;0.89;56.33;100672.50;5595067;26;34799;-88
2022/03/03 00:24:23;;;;;;;33.17;21.08;;;;;;;0.87;57.05;100671.75;5602979;26;35417;-89
2022/03/03 00:27:26;;;;;;;34.42;20.40;;;;;;;0.66;57.17;100674.97;5589670;26;35295;-89
2022/03/03 00:30:29;;;;;;;34.67;20.98;;;;;;;0.59;58.09;100680.81;5603241;26;35358;-88
2022/03/03 00:37:35;;;;;;;36.03;21.75;;;;;;;0.41;59.63;100682.91;4098707;26;20089;-89
2022/03/03 00:40:40;;;;;;;39.70;22.60;;;;;;;0.37;59.72;100673.47;5564746;26;33921;-89
2022/03/03 00:43:43;;;;;;;34.67;21.77;;;;;;;0.35;59.45;100670.94;5591602;26;34339;-88
2022/03/03 00:46:46;;;;;;;35.47;21.90;;;;;;;0.25;60.74;100669.03;5581564;26;34870;-88
2022/03/03 00:49:49;;;;;;;34.90;22.02;;;;;;;0.10;63.14;100674.41;5594168;26;33980;-88
2022/03/03 00:56:41;;;;;;;36.88;22.55;;;;;;;0.04;61.72;100669.53;5578268;26;33804;-88
2022/03/03 00:59:43;;;;;;;37.17;22.27;;;;;;;-0.07;63.74;100664.94;5536138;32;33689;-88
2022/03/03 01:02:48;;;;;;;34.95;22.77;;;;;;;-0.17;62.92;100663.03;5585902;26;33755;-87
2022/03/03 01:05:53;;;;;;;35.78;21.98;;;;;;;-0.18;65.26;100666.59;5583637;26;35253;-88
2022/03/03 01:08:56;;;;;;;33.22;21.92;;;;;;;-0.26;64.39;100662.69;5527903;32;34211;-88
2022/03/03 01:11:59;;;;;;;35.75;22.80;;;;;;;-0.28;65.28;100659.28;5528373;32;33919;-88
2022/03/03 01:15:04;;;;;;;34.10;22.35;;;;;;;-0.39;64.63;100655.66;5528070;32;34194;-88
2022/03/03 01:18:08;;;;;;;36.08;23.00;;;;;;;-0.48;65.67;100647.37;5528442;32;34140;-89
2022/03/03 01:21:10;;;;;;;35.70;23.00;;;;;;;-0.50;65.65;100648.41;5528304;32;34446;-88
2022/03/03 01:24:14;;;;;;;33.90;22.23;;;;;;;-0.64;66.97;100640.53;5528426;32;35383;-88
2022/03/03 01:27:18;;;;;;;35.85;23.40;;;;;;;-0.71;66.51;100640.09;5528555;32;33962;-88
2022/03/03 01:30:22;;;;;;;39.05;23.50;;;;;;;-0.72;65.94;100638.41;5528671;32;33958;-88
2022/03/03 01:33:25;;;;;;;37.80;23.67;;;;;;;-0.58;66.81;100640.16;5528689;32;34587;-89
2022/03/03 01:36:28;;;;;;;36.65;23.05;;;;;;;-0.57;67.23;100641.84;5528321;32;34022;-88
2022/03/03 01:39:31;;;;;;;37.92;24.25;;;;;;;-0.65;67.67;100644.97;5528246;32;34548;-88
2022/03/03 01:42:34;;;;;;;37.65;23.45;;;;;;;-0.66;68.37;100638.00;5528521;32;33852;-88
2022/03/03 01:45:50;;;;;;;41.33;24.52;;;;;;;-0.52;66.21;100631.81;5544398;26;34053;-88
2022/03/03 01:49:21;;;;;;;;;;;;;;;-0.70;67.63;100621.50;5550187;26;34652;-88
2022/03/03 01:52:25;;;;;;;37.67;23.42;;;;;;;-0.76;68.83;100621.03;5543752;26;33520;-88
2022/03/03 01:55:28;;;;;;;38.25;26.15;;;;;;;-0.80;68.49;100620.37;5573146;26;33913;-89
2022/03/03 01:58:31;;;;;;;38.35;23.05;;;;;;;-0.83;68.88;100623.22;5585272;26;34829;-88
2022/03/03 02:01:36;;;;;;;41.92;25.70;;;;;;;-0.90;68.91;100618.44;5574990;26;31717;-88
2022/03/03 02:04:42;;;;;;;37.15;24.10;;;;;;;-0.97;70.87;100612.69;5567026;26;34197;-88
2022/03/03 02:07:45;;;;;;;39.50;24.95;;;;;;;-1.06;70.88;100603.56;5593679;26;33688;-88
2022/03/03 02:10:48;;;;;;;36.75;23.65;;;;;;;-1.12;70.52;100609.22;5531708;32;33937;-88
2022/03/03 02:13:52;;;;;;;39.15;24.45;;;;;;;-1.22;70.17;100611.62;5583878;26;34590;-89
2022/03/03 02:17:22;;;;;;;40.92;25.65;;;;;;;-1.29;70.33;100610.28;5600219;26;33835;-88
2022/03/03 02:20:28;;;;;;;39.67;24.63;;;;;;;-1.29;71.25;100602.34;5576057;26;33578;-90
2022/03/03 02:23:31;;;;;;;36.85;24.73;;;;;;;-1.38;72.04;100603.78;5576260;26;33870;-89
2022/03/03 02:26:34;;;;;;;40.20;24.42;;;;;;;-1.41;71.95;100593.41;5567375;26;34705;-88
2022/03/03 02:29:37;;;;;;;36.58;24.23;;;;;;;-1.42;71.32;100596.16;5566681;26;34025;-88
2022/03/03 02:32:40;;;;;;;39.03;25.20;;;;;;;-1.43;71.33;100595.31;5591316;26;33932;-88
2022/03/03 02:35:43;;;;;;;38.58;24.75;;;;;;;-1.44;71.87;100604.16;5583714;26;34223;-88
2022/03/03 02:38:47;;;;;;;40.90;26.05;;;;;;;-1.46;73.33;100597.31;5584487;26;34143;-89
2022/03/03 02:41:50;;;;;;;37.10;25.08;;;;;;;-1.51;72.62;100587.03;5600201;26;34618;-88
2022/03/03 02:44:55;;;;;;;40.28;26.52;;;;;;;-1.54;73.32;100591.66;5558621;32;34731;-88
2022/03/03 02:47:59;;;;;;;42.03;26.70;;;;;;;-1.63;73.20;100593.91;5553661;26;35361;-89
2022/03/03 02:51:41;;;;;;;43.63;26.50;;;;;;;-1.60;73.68;100599.00;5573117;26;35640;31
2022/03/03 02:54:44;;;;;;;44.78;27.83;;;;;;;-1.69;72.71;100586.37;5544380;26;34524;-88
2022/03/03 02:57:53;;;;;;;45.90;28.98;;;;;;;-1.73;71.24;100584.00;5579416;26;32938;-89
2022/03/03 03:01:12;;;;;;;40.33;27.33;;;;;;;-1.69;73.62;100583.75;5597920;26;31989;-88
2022/03/03 03:04:15;;;;;;;45.63;29.05;;;;;;;-1.71;72.16;100577.69;5575030;26;34367;-89
2022/03/03 03:07:20;;;;;;;47.03;28.02;;;;;;;-1.76;74.31;100571.84;5563285;26;34647;-88
2022/03/03 03:10:23;;;;;;;43.90;30.17;;;;;;;-1.83;73.97;100571.38;5591240;26;34131;-88
2022/03/03 07:45:29;;;;;;;45.00;25.98;;;;;;;1.76;59.36;100560.00;935897;28;20796;-90
2022/03/03 07:48:56;;;;;;;40.75;21.77;;;;;;;1.94;59.47;100555.09;5334223;28;31833;-88
2022/03/03 08:04:52;;;;;;;39.78;19.87;;;;;;;3.37;53.80;100557.84;902644;28;20492;31
2022/03/03 08:07:56;;;;;;;39.33;19.85;;;;;;;3.04;54.99;100548.16;5332078;28;33930;-89
2022/03/03 08:11:22;;;;;;;38.05;20.17;;;;;;;3.17;54.62;100548.81;5340994;28;32077;-89
2022/03/03 08:14:26;;;;;;;35.92;18.45;;;;;;;3.31;55.80;100553.03;5332393;28;33770;-88
2022/03/03 08:17:32;;;;;;;43.78;19.00;;;;;;;3.27;55.32;100546.25;5336170;28;33969;-88
2022/03/03 08:20:38;;;;;;;34.67;19.10;;;;;;;3.39;55.37;100539.94;5290949;33;34826;-89
2022/03/03 08:23:43;;;;;;;34.42;18.45;;;;;;;3.53;54.04;100537.91;5346352;28;34422;-88
2022/03/03 08:26:46;;;;;;;38.83;18.87;;;;;;;3.72;53.66;100530.09;5304139;33;33809;-88
2022/03/03 08:29:50;;;;;;;34.55;18.77;;;;;;;4.07;52.91;100523.56;5294359;33;34708;-88
2022/03/03 08:33:11;;;;;;;38.88;18.90;;;;;;;4.26;52.70;100525.47;5295579;33;35307;-88
2022/03/03 08:36:37;;;;;;;41.28;21.83;;;;;;;4.44;52.44;100528.34;5309438;33;34495;-88
2022/03/03 08:39:40;;;;;;;38.70;20.37;;;;;;;4.66;51.76;100522.81;5290779;33;33819;-88
2022/03/03 08:42:51;;;;;;;40.60;23.15;;;;;;;4.85;51.13;100518.50;5294494;33;33635;-88
2022/03/03 08:46:05;;;;;;;36.05;21.37;;;;;;;4.80;51.33;100513.59;5298362;33;33464;-90
2022/03/03 08:49:11;;;;;;;41.80;23.42;;;;;;;4.80;51.22;100510.06;5300410;33;35266;-89
2022/03/03 08:52:14;;;;;;;37.38;21.17;;;;;;;5.05;50.65;100508.69;5309079;33;33899;-89
2022/03/03 08:55:16;;;;;;;38.85;22.87;;;;;;;5.15;48.44;100506.91;5302737;33;34242;-88
2022/03/03 08:58:22;;;;;;;39.30;22.83;;;;;;;5.33;48.03;100505.22;5299505;33;34612;-88
2022/03/03 09:01:25;;;;;;;37.70;22.10;;;;;;;5.18;48.62;100511.97;5297988;33;34639;-88
2022/03/03 09:04:28;;;;;;;38.65;22.42;;;;;;;5.18;49.12;100515.47;5301130;33;34459;-88
2022/03/03 09:07:31;;;;;;;35.72;21.55;;;;;;;5.28;48.08;100514.63;5299714;33;33506;-89
2022/03/03 09:10:34;;;;;;;34.17;20.88;;;;;;;5.31;47.86;100517.84;5298637;33;33927;-89
2022/03/03 09:13:37;;;;;;;37.22;17.80;;;;;;;5.44;47.46;100514.87;5296316;33;34380;-88
2022/03/03 09:16:40;;;;;;;28.95;16.12;;;;;;;5.58;46.40;100518.94;5307291;33;33054;-88
2022/03/03 09:19:43;;;;;;;29.45;15.70;;;;;;;5.84;45.26;100517.38;5298486;33;34057;-89
2022/03/03 09:22:46;;;;;;;29.25;15.65;;;;;;;5.84;44.60;100517.38;5312717;28;34531;-89
2022/03/03 09:25:49;;;;;;;31.05;16.77;;;;;;;6.00;45.10;100506.13;5304770;33;34243;-89
2022/03/03 09:28:52;;;;;;;24.65;16.58;;;;;;;6.12;44.35;100512.13;5302663;33;33835;-88
2022/03/03 09:31:55;;;;;;;28.48;15.80;;;;;;;6.16;43.57;100499.31;5288243;33;34038;-88
2022/03/03 09:34:58;;;;;;;24.40;14.68;;;;;;;6.38;43.73;100504.31;5288316;33;33524;-88
2022/03/03 09:38:01;;;;;;;28.70;16.87;;;;;;;6.54;42.96;100509.84;5285473;33;33495;-89
2022/03/03 09:41:03;;;;;;;31.55;16.48;;;;;;;6.62;43.13;100505.59;5292745;33;34427;-88
2022/03/03 09:44:06;;;;;;;28.02;14.87;;;;;;;6.64;42.49;100506.25;5290885;33;34039;-88
2022/03/03 09:47:11;;;;;;;28.48;16.17;;;;;;;6.68;41.82;100499.62;5288952;33;35116;-87
2022/03/03 09:50:14;;;;;;;31.65;16.12;;;;;;;6.57;43.24;100500.66;5289860;33;36107;-88
2022/03/03 09:53:18;;;;;;;27.27;15.85;;;;;;;6.68;42.86;100494.28;5323441;28;34038;-88
2022/03/03 09:56:22;;;;;;;34.92;16.20;;;;;;;6.79;42.63;100486.06;5313458;33;35009;-88
2022/03/03 09:59:25;;;;;;;27.02;15.95;;;;;;;6.72;42.13;100490.31;5300631;33;34568;-88
2022/03/03 10:02:27;;;;;;;30.67;15.43;;;;;;;6.72;42.26;100495.66;5297962;33;34238;-88
2022/03/03 10:05:45;;;;;;;27.08;15.82;;;;;;;6.98;41.42;100493.94;5302546;33;33984;-87
2022/03/03 10:08:51;;;;;;;29.67;15.23;;;;;;;7.10;41.12;100499.91;5309546;33;34599;-87
2022/03/03 10:12:07;;;;;;;26.15;15.73;;;;;;;6.85;41.68;100498.00;5307943;33;34010;-88
2022/03/03 10:15:14;;;;;;;28.05;14.55;;;;;;;7.06;41.17;100495.03;5303698;33;35217;-87
2022/03/03 10:18:20;;;;;;;46.70;16.25;;;;;;;6.99;41.95;100487.59;5307636;33;33919;-87
2022/03/03 10:21:26;;;;;;;23.48;13.20;;;;;;;6.96;41.71;100476.34;5309475;33;34047;-87
2022/03/03 10:24:29;;;;;;;25.52;13.73;;;;;;;7.25;41.01;100478.78;5315334;33;34300;-87
2022/03/03 10:27:33;;;;;;;26.35;14.73;;;;;;;7.21;40.56;100480.94;5317215;33;34129;-87
2022/03/03 10:31:00;;;;;;;37.58;14.27;;;;;;;7.11;40.89;100477.53;5311638;33;34582;-88
2022/03/03 10:34:03;;;;;;;22.23;13.18;;;;;;;7.15;40.69;100472.69;5314309;33;34633;-88
2022/03/03 10:37:09;;;;;;;24.95;13.80;;;;;;;7.23;40.37;100464.75;5315529;33;34316;-87
2022/03/03 10:40:17;;;;;;;22.95;13.65;;;;;;;7.27;40.22;100471.47;5310916;33;34076;-87
2022/03/03 10:43:20;;;;;;;22.98;13.25;;;;;;;7.45;40.53;100456.19;5313285;33;34225;-87
2022/03/03 10:46:23;;;;;;;25.35;14.38;;;;;;;7.64;39.00;100460.53;5310847;33;34423;-87
2022/03/03 10:49:27;;;;;;;27.00;13.80;;;;;;;7.75;39.37;100445.19;5311301;33;33507;-87
2022/03/03 10:52:35;;;;;;;26.65;13.95;;;;;;;7.70;39.57;100453.72;5307957;33;33876;-87
2022/03/03 10:55:38;;;;;;;22.13;13.35;;;;;;;7.68;39.15;100442.31;5310439;33;34195;-87
2022/03/03 10:58:58;;;;;;;22.52;13.40;;;;;;;8.10;38.36;100444.22;5306765;33;34425;-87
2022/03/03 11:02:02;;;;;;;22.52;13.68;;;;;;;8.32;37.68;100432.91;5309086;33;33843;-87
2022/03/03 11:05:06;;;;;;;25.15;14.45;;;;;;;8.32;37.72;100427.56;5314432;33;34208;-87
2022/03/03 11:08:09;;;;;;;25.83;15.25;;;;;;;8.58;38.02;100426.66;5306973;33;34342;-87
2022/03/03 11:11:14;;;;;;;24.87;13.90;;;;;;;8.57;38.06;100427.66;5302663;33;33920;-87
2022/03/03 11:14:18;;;;;;;23.90;15.38;;;;;;;8.56;38.40;100421.44;5309355;33;34069;-87
2022/03/03 11:17:37;;;;;;;26.62;14.77;;;;;;;9.16;37.25;100412.31;5310130;33;33888;-87
2022/03/03 11:20:40;;;;;;;25.58;15.43;;;;;;;9.40;36.71;100410.63;5310589;33;34247;-87
2022/03/03 11:23:47;;;;;;;28.45;16.25;;;;;;;9.06;36.44;100407.09;5306868;33;34623;-87
2022/03/03 11:26:51;;;;;;;29.65;15.05;;;;;;;8.87;37.15;100398.53;5305947;33;33565;-87
2022/03/03 11:30:25;;;;;;;23.12;15.15;;;;;;;8.68;37.07;100394.31;5303788;33;34363;-88
2022/03/03 11:33:30;;;;;;;22.40;13.73;;;;;;;8.61;37.64;100396.81;5304856;33;34236;-88
2022/03/03 11:36:43;;;;;;;22.65;13.43;;;;;;;8.89;36.92;100399.19;5302194;33;33401;-88
2022/03/03 11:39:58;;;;;;;30.33;14.45;;;;;;;9.22;36.93;100395.53;5306178;33;33435;-88
2022/03/03 11:43:11;;;;;;;26.52;15.50;;;;;;;9.66;35.57;100383.53;5310593;33;33647;-88
2022/03/03 11:46:43;;;;;;;25.12;15.15;;;;;;;9.72;37.11;100388.22;5303476;33;34471;-88
2022/03/03 11:50:07;;;;;;;27.10;15.07;;;;;;;9.75;36.48;100377.97;5297425;33;33999;-87
2022/03/03 11:53:10;;;;;;;24.65;15.48;;;;;;;9.63;35.87;100376.66;5306867;33;33914;-88
2022/03/03 11:56:12;;;;;;;23.12;14.93;;;;;;;9.21;36.56;100374.19;5301691;33;34297;-87
2022/03/03 11:59:16;;;;;;;25.02;15.02;;;;;;;9.48;36.39;100364.94;5301518;33;33507;-88
2022/03/03 12:02:27;;;;;;;23.23;14.02;;;;;;;9.40;37.00;100363.09;5306452;33;34429;-88
2022/03/03 12:05:37;;;;;;;25.12;14.70;;;;;;;9.17;37.37;100365.63;5301262;33;33522;-88
2022/03/03 12:08:42;;;;;;;24.08;14.27;;;;;;;9.21;37.19;100353.53;5302454;33;33699;-88
2022/03/03 12:11:46;;;;;;;21.02;12.90;;;;;;;9.27;37.51;100352.87;5299536;33;34164;-88
2022/03/03 12:15:01;;;;;;;21.33;13.90;;;;;;;9.25;36.47;100359.44;5302921;33;33888;-88
2022/03/03 12:18:08;;;;;;;21.70;12.93;;;;;;;9.16;37.34;100350.53;5300567;33;33538;-88
2022/03/03 12:21:29;;;;;;;23.62;12.95;;;;;;;10.22;34.90;100347.50;5302695;33;33867;-91
2022/03/03 12:24:37;;;;;;;19.75;10.85;;;;;;;11.26;32.96;100341.72;5306742;33;34148;-88
2022/03/03 12:28:16;;;;;;;21.80;12.57;;;;;;;12.23;31.43;100331.69;5306126;33;33501;-89
2022/03/03 12:31:30;;;;;;;18.12;11.43;;;;;;;13.62;29.50;100334.00;5309717;33;33940;-88
2022/03/03 12:34:33;;;;;;;22.65;11.48;;;;;;;13.00;30.25;100335.59;5306359;33;33606;-88
2022/03/03 12:37:43;;;;;;;24.37;13.27;;;;;;;13.35;29.61;100328.41;5304964;33;33624;-88
2022/03/03 12:40:52;;;;;;;20.25;10.95;;;;;;;13.99;29.16;100327.31;5307769;33;33819;-88
2022/03/03 12:44:34;;;;;;;20.95;11.23;;;;;;;13.92;28.81;100331.03;5302072;33;33932;-88
2022/03/03 12:47:42;;;;;;;19.30;11.15;;;;;;;12.82;29.84;100319.84;5269700;33;33436;-88
2022/03/03 12:50:45;;;;;;;18.70;11.27;;;;;;;14.02;29.08;100320.69;5307534;33;141332;-88
2022/03/03 12:53:50;;;;;;;21.30;11.77;;;;;;;15.80;26.64;100310.22;5302337;33;34792;-88
2022/03/03 12:57:00;;;;;;;19.85;11.88;;;;;;;15.30;26.39;100313.41;5318089;33;34200;-88
2022/03/03 13:00:12;;;;;;;19.05;10.88;;;;;;;15.44;26.64;100300.66;5320714;33;35280;-91
2022/03/03 13:03:18;;;;;;;21.10;11.73;;;;;;;16.41;25.17;100303.44;5315093;33;35332;-89
2022/03/03 13:06:25;;;;;;;20.67;11.95;;;;;;;17.92;23.27;100298.81;5311227;33;33420;-89
2022/03/03 13:09:28;;;;;;;18.50;12.80;;;;;;;16.77;24.27;100290.06;5307906;33;34718;-89
2022/03/03 13:12:44;;;;;;;19.95;13.32;;;;;;;16.10;24.98;100291.50;5307724;33;33688;-88
2022/03/03 13:15:48;;;;;;;21.55;13.57;;;;;;;14.07;27.24;100297.38;5305431;33;33157;-89
2022/03/03 13:18:51;;;;;;;18.73;13.38;;;;;;;12.67;29.30;100292.06;5308852;33;33843;-89
2022/03/03 13:21:54;;;;;;;20.67;13.20;;;;;;;11.99;31.35;100291.53;5304991;33;34205;-88
2022/03/03 13:25:15;;;;;;;21.30;14.10;;;;;;;11.97;31.14;100293.59;5306414;33;33800;-88
2022/03/03 13:28:24;;;;;;;26.12;14.35;;;;;;;11.92;30.98;100290.63;5306262;33;33503;-89
2022/03/03 13:31:31;;;;;;;22.27;13.23;;;;;;;11.53;31.70;100280.97;5299512;33;33826;-88
2022/03/03 13:34:36;;;;;;;24.75;13.93;;;;;;;12.02;31.30;100283.06;5315253;33;33709;-89
2022/03/03 13:37:39;;;;;;;22.90;13.82;;;;;;;11.57;31.29;100279.56;5299411;33;34027;-89
2022/03/03 13:40:42;;;;;;;23.35;13.75;;;;;;;11.35;32.30;100275.97;5307757;33;35206;-89
2022/03/03 13:43:44;;;;;;;24.30;14.07;;;;;;;10.94;33.11;100271.00;5308205;33;33873;-88
2022/03/03 13:47:00;;;;;;;20.42;13.18;;;;;;;10.50;34.12;100265.44;5306753;33;34209;-88
2022/03/03 13:50:02;;;;;;;22.87;13.52;;;;;;;10.36;34.70;100267.09;5303683;33;33997;-88
2022/03/03 13:53:24;;;;;;;20.35;13.90;;;;;;;10.45;34.71;100257.94;5295973;33;34250;-88
2022/03/03 13:56:29;;;;;;;20.77;13.50;;;;;;;10.38;34.38;100267.72;5308417;33;34522;-88
2022/03/03 13:59:55;;;;;;;23.90;13.95;;;;;;;10.19;34.49;100261.78;5313877;33;34237;-88
2022/03/03 14:03:03;;;;;;;22.52;14.73;;;;;;;9.75;35.52;100261.53;5311823;33;34301;-93
2022/03/03 14:06:08;;;;;;;29.20;14.27;;;;;;;10.06;35.70;100258.00;5310022;33;34314;-91
2022/03/03 14:09:24;;;;;;;24.35;14.57;;;;;;;9.88;35.01;100258.25;5308400;33;33599;-88
2022/03/03 14:12:28;;;;;;;23.17;13.82;;;;;;;9.74;35.54;100251.81;5315441;33;33656;-89
2022/03/03 14:15:31;;;;;;;24.23;13.70;;;;;;;9.88;35.35;100256.41;5304711;33;34417;-89
2022/03/03 14:18:34;;;;;;;22.70;14.02;;;;;;;9.73;35.21;100253.63;5303893;33;33536;-88
2022/03/03 14:21:39;;;;;;;20.83;13.45;;;;;;;9.83;36.49;100239.97;5308915;33;35116;-89
2022/03/03 14:24:42;;;;;;;23.95;14.25;;;;;;;9.71;35.35;100247.59;5310641;33;34505;-88
2022/03/03 14:27:44;;;;;;;25.83;14.00;;;;;;;9.53;35.82;100247.00;5306257;33;34046;-89
2022/03/03 14:30:47;;;;;;;23.17;13.40;;;;;;;9.40;36.19;100235.97;5310968;33;34052;-89
2022/03/03 14:33:51;;;;;;;24.30;13.40;;;;;;;9.62;35.33;100239.72;5319356;33;35002;-88
2022/03/03 14:37:14;;;;;;;23.48;13.20;;;;;;;9.01;37.20;100239.47;5295712;33;34262;-88
2022/03/03 14:40:18;;;;;;;25.08;13.82;;;;;;;9.06;36.60;100239.75;5294313;33;33834;-87
2022/03/03 14:43:21;;;;;;;25.02;13.82;;;;;;;8.85;37.98;100241.13;5291582;33;33707;-89
2022/03/03 14:46:26;;;;;;;26.87;14.30;;;;;;;8.61;37.77;100235.81;5292658;33;33989;-87
2022/03/03 14:49:29;;;;;;;26.65;14.38;;;;;;;8.54;37.38;100232.09;5292527;33;33639;-89
2022/03/03 14:52:31;;;;;;;23.15;12.73;;;;;;;8.62;37.50;100235.62;5300618;33;34848;-88
2022/03/03 14:55:35;;;;;;;24.52;13.77;;;;;;;8.62;37.03;100237.47;5314764;33;33815;-88
2022/03/03 14:58:38;;;;;;;21.50;14.25;;;;;;;8.46;38.11;100241.00;5317019;33;35290;-87
2022/03/03 15:01:41;;;;;;;21.60;12.50;;;;;;;8.31;38.04;100237.28;5314083;33;34223;-88
2022/03/03 15:04:45;;;;;;;24.52;13.18;;;;;;;7.95;39.47;100235.69;5299510;33;33792;-89
2022/03/03 15:07:48;;;;;;;22.30;13.62;;;;;;;7.70;38.78;100223.25;5304471;33;33973;-88
2022/03/03 15:10:50;;;;;;;19.40;12.48;;;;;;;7.44;39.73;100231.38;5305134;33;34011;-87
2022/03/03 15:13:53;;;;;;;23.42;14.50;;;;;;;7.40;39.79;100232.69;5307426;33;34319;-88
2022/03/03 15:16:58;;;;;;;26.00;14.52;;;;;;;7.20;40.40;100232.09;5306602;33;33870;-88
2022/03/03 15:20:01;;;;;;;24.67;14.48;;;;;;;7.04;40.44;100222.97;5304887;33;34288;-88
2022/03/03 15:23:03;;;;;;;24.98;14.50;;;;;;;6.94;40.70;100219.56;5309815;33;33582;-88
2022/03/03 15:26:06;;;;;;;24.20;14.02;;;;;;;6.90;41.32;100218.19;5322889;33;35311;-87
2022/03/03 15:29:10;;;;;;;23.80;14.32;;;;;;;6.87;41.21;100220.34;5309179;33;33994;-88
2022/03/03 15:32:13;;;;;;;25.15;13.70;;;;;;;6.85;40.97;100217.03;5312807;33;33814;-88
2022/03/03 15:38:39;;;;;;;24.58;14.60;;;;;;;6.75;43.41;100217.94;5310630;33;35257;-92
2022/03/03 15:41:43;;;;;;;25.73;14.55;;;;;;;6.69;42.50;100221.25;5322106;33;35636;-88
2022/03/03 15:44:46;;;;;;;32.28;14.70;;;;;;;6.74;42.87;100215.44;5312354;33;35344;-88
2022/03/03 15:47:49;;;;;;;28.27;14.35;;;;;;;6.62;42.56;100224.72;5303908;33;34637;-88
2022/03/03 15:50:52;;;;;;;24.75;12.40;;;;;;;6.63;42.35;100224.53;5308043;33;34304;-89
2022/03/03 15:53:54;;;;;;;24.00;14.52;;;;;;;6.56;42.37;100220.84;5307992;33;34822;-89
2022/03/03 15:56:57;;;;;;;24.25;13.75;;;;;;;6.46;43.72;100222.75;5301275;33;34818;-90
2022/03/03 16:00:02;;;;;;;23.50;13.55;;;;;;;6.61;43.02;100223.87;5299950;33;33606;-89
2022/03/03 16:03:07;;;;;;;23.52;14.70;;;;;;;6.49;42.41;100220.63;5300397;33;35236;-89
2022/03/03 16:06:10;;;;;;;27.30;17.45;;;;;;;6.43;43.57;100221.22;5306084;33;35034;-89
2022/03/03 16:09:13;;;;;;;32.08;18.55;;;;;;;6.40;43.25;100221.53;5299277;33;34094;-89
2022/03/03 16:12:16;;;;;;;33.55;19.75;;;;;;;6.40;43.38;100226.87;5309551;33;33821;-89
2022/03/03 16:15:19;;;;;;;33.28;19.27;;;;;;;6.28;43.57;100230.78;5308785;33;34178;-89
2022/03/03 16:18:25;;;;;;;33.53;19.48;;;;;;;6.15;43.30;100241.03;5307344;33;34975;-89
2022/03/03 16:21:28;;;;;;;35.95;19.52;;;;;;;6.08;43.45;100238.97;5309964;33;34090;-89
2022/03/03 16:24:31;;;;;;;31.65;17.52;;;;;;;6.01;44.26;100245.91;5308017;33;34325;-89
2022/03/03 16:27:34;;;;;;;32.42;19.05;;;;;;;6.00;43.87;100244.22;5310175;33;34131;-89
2022/03/03 16:30:37;;;;;;;31.58;16.98;;;;;;;5.94;43.73;100243.97;5305231;33;34106;-89
2022/03/03 16:33:40;;;;;;;34.08;18.33;;;;;;;5.88;44.82;100246.25;5310776;33;34151;-89
2022/03/03 16:36:45;;;;;;;32.15;19.12;;;;;;;5.88;44.20;100240.91;5315011;28;34030;-88
2022/03/03 16:39:47;;;;;;;35.53;19.60;;;;;;;5.83;44.10;100245.03;5303651;28;34492;-88
2022/03/03 16:42:51;;;;;;;33.10;18.70;;;;;;;5.88;43.64;100248.09;5290648;33;33782;-88
2022/03/03 16:45:53;;;;;;;32.72;18.35;;;;;;;5.82;43.81;100243.31;5291156;33;33933;-89
2022/03/03 16:48:57;;;;;;;34.30;19.85;;;;;;;5.69;43.59;100246.38;5305958;28;33949;-88
2022/03/03 16:52:27;;;;;;;31.85;19.10;;;;;;;5.63;44.06;100241.63;5323261;28;34371;-90
2022/03/03 16:55:31;;;;;;;29.20;16.30;;;;;;;5.54;45.01;100245.19;5288355;33;33553;-89
2022/03/03 16:58:35;;;;;;;29.00;17.25;;;;;;;5.53;44.40;100249.69;5314031;28;34585;-88
2022/03/03 17:01:39;;;;;;;35.67;17.83;;;;;;;5.52;44.21;100245.31;5306911;33;33580;-88
2022/03/03 17:04:43;;;;;;;32.45;17.70;;;;;;;5.55;44.09;100250.37;5311842;28;34340;-88
